Time;durP1;ratioP1;P1;durP2;ratioP2;P2;SDS_P1;SDS_P2;PMS_P1;PMS_P2;Temp;Humidity;BMP_temperature;BMP_pressure;BME280_temperature;BME280_humidity;BME280_pressure;Samples;Min_cycle;Max_cycle;Signal;HPM_P1;HPM_P2
2023/03/09 00:05:06;;;;;;;1999.90;999.90;;;6.20;99.90;;;;;;6637360;89;20193;-77
2023/03/09 00:15:09;;;;;;;1999.90;999.90;;;6.20;99.90;;;;;;6642863;89;20214;-77
2023/03/09 00:25:13;;;;;;;1999.90;999.90;;;6.30;99.90;;;;;;6643527;89;20216;-77
2023/03/09 00:35:13;;;;;;;1999.90;999.90;;;6.40;99.90;;;;;;6641841;89;20217;-77
2023/03/09 00:45:15;;;;;;;1999.90;999.90;;;6.30;99.90;;;;;;6642051;89;20241;-77
2023/03/09 00:55:16;;;;;;;1999.90;999.90;;;6.30;99.90;;;;;;6643115;89;20226;-78
2023/03/09 01:05:17;;;;;;;1999.90;999.90;;;6.20;99.90;;;;;;6641188;89;20204;-77
2023/03/09 01:15:17;;;;;;;1999.90;999.90;;;6.20;99.90;;;;;;6641020;89;20212;-78
2023/03/09 01:25:17;;;;;;;1999.90;999.90;;;6.20;99.90;;;;;;6641711;89;20239;-77
2023/03/09 01:35:18;;;;;;;1999.90;999.90;;;6.10;99.90;;;;;;6657155;89;20243;-78
2023/03/09 01:45:19;;;;;;;1999.90;999.90;;;6.10;99.90;;;;;;6653715;88;20195;-80
2023/03/09 01:55:29;;;;;;;1999.90;999.90;;;5.90;99.90;;;;;;6664082;88;20202;-78
2023/03/09 02:05:44;;;;;;;1999.90;999.90;;;6.40;99.90;;;;;;6649209;89;20181;-78
2023/03/09 02:15:44;;;;;;;1999.90;999.90;;;6.30;99.90;;;;;;6638807;89;20223;-76
2023/03/09 02:25:54;;;;;;;1999.90;999.90;;;6.20;99.90;;;;;;6639306;89;20299;-76
2023/03/09 02:35:56;;;;;;;1999.90;999.90;;;6.40;99.90;;;;;;6638922;89;20181;-76
2023/03/09 02:45:57;;;;;;;1999.90;999.90;;;6.40;99.90;;;;;;6653633;88;20243;-76
2023/03/09 02:55:57;;;;;;;1999.90;999.90;;;6.40;99.90;;;;;;6645656;88;20644;-75
2023/03/09 03:05:58;;;;;;;1999.90;999.90;;;6.60;99.90;;;;;;6644696;89;20286;-76
2023/03/09 03:16:01;;;;;;;1999.90;999.90;;;6.80;99.90;;;;;;6650284;88;20213;-76
2023/03/09 03:26:09;;;;;;;1999.90;999.90;;;6.90;99.90;;;;;;6649520;88;20281;-76
2023/03/09 03:36:09;;;;;;;1999.90;999.90;;;6.80;99.90;;;;;;6647824;89;20188;-76
2023/03/09 03:46:10;;;;;;;1999.90;999.90;;;6.90;99.90;;;;;;6651044;89;20199;-76
2023/03/09 03:56:10;;;;;;;1999.90;999.90;;;6.80;99.90;;;;;;6665875;88;20268;-76
2023/03/09 04:06:11;;;;;;;1999.90;999.90;;;6.80;99.90;;;;;;6647845;89;20265;-76
2023/03/09 04:16:11;;;;;;;1999.90;999.90;;;6.70;99.90;;;;;;6654268;89;20253;-77
2023/03/09 04:26:12;;;;;;;1999.90;999.90;;;6.70;99.90;;;;;;6649545;89;20208;-76
2023/03/09 04:36:12;;;;;;;1999.90;999.90;;;6.50;99.90;;;;;;6653386;89;20787;-76
2023/03/09 04:46:14;;;;;;;1999.90;999.90;;;6.50;99.90;;;;;;6649421;89;20198;-76
2023/03/09 04:56:15;;;;;;;1999.90;999.90;;;6.30;99.90;;;;;;6653840;88;20298;-76
2023/03/09 05:06:15;;;;;;;1999.90;999.90;;;6.30;99.90;;;;;;6643372;89;20185;-76
2023/03/09 05:16:16;;;;;;;1999.90;999.90;;;6.20;99.90;;;;;;6638613;89;20211;-76
2023/03/09 05:26:16;;;;;;;1999.90;999.90;;;6.30;99.90;;;;;;6644948;89;20670;-76
2023/03/09 05:36:20;;;;;;;1999.90;999.90;;;6.20;99.90;;;;;;6639588;89;20207;-76
2023/03/09 05:46:23;;;;;;;1999.90;999.90;;;6.10;99.90;;;;;;6639847;89;20209;-76
2023/03/09 05:56:23;;;;;;;1999.90;999.90;;;5.90;99.90;;;;;;6641901;89;20176;-76
2023/03/09 06:06:24;;;;;;;1999.90;999.90;;;5.90;99.90;;;;;;6648498;88;20186;-77
2023/03/09 06:16:26;;;;;;;1999.90;999.90;;;5.90;99.90;;;;;;6643320;88;20194;-75
2023/03/09 06:26:27;;;;;;;1999.90;999.90;;;5.90;99.90;;;;;;6638086;89;20786;-77
2023/03/09 06:36:27;;;;;;;1999.90;999.90;;;5.60;99.90;;;;;;6645510;89;20184;-76
2023/03/09 06:46:29;;;;;;;1999.90;999.90;;;5.60;99.90;;;;;;6645511;89;20279;-76
2023/03/09 06:56:29;;;;;;;1999.90;999.90;;;5.60;99.90;;;;;;6645653;89;20587;-75
2023/03/09 07:06:30;;;;;;;1999.90;999.90;;;5.60;99.90;;;;;;6635416;89;20649;-76
2023/03/09 07:16:31;;;;;;;1999.90;999.90;;;5.70;99.90;;;;;;6652839;88;20221;-76
2023/03/09 07:26:31;;;;;;;1999.90;999.90;;;5.80;99.90;;;;;;6661035;88;20758;-76
2023/03/09 07:36:32;;;;;;;1999.90;999.90;;;5.90;99.90;;;;;;6662542;88;20247;-75
2023/03/09 07:46:33;;;;;;;1999.90;999.90;;;5.60;99.90;;;;;;6663020;88;20245;-76
2023/03/09 07:56:34;;;;;;;1999.90;999.90;;;5.50;99.90;;;;;;6658184;89;20192;-76
2023/03/09 08:06:37;;;;;;;1999.90;999.90;;;5.40;99.90;;;;;;6648280;88;20229;-76
2023/03/09 08:16:38;;;;;;;1999.90;999.90;;;5.60;99.90;;;;;;6652236;89;20193;-76
2023/03/09 08:26:39;;;;;;;1999.90;999.90;;;5.50;99.90;;;;;;6637883;89;20377;-76
2023/03/09 08:36:39;;;;;;;1999.90;999.90;;;5.70;99.90;;;;;;6645565;89;20233;-76
2023/03/09 08:46:40;;;;;;;1999.90;999.90;;;5.80;99.90;;;;;;6646953;89;20196;-76
2023/03/09 08:56:41;;;;;;;1999.90;999.90;;;5.80;99.90;;;;;;6642972;89;20235;-76
2023/03/09 09:06:41;;;;;;;1999.90;999.90;;;6.10;99.90;;;;;;6648089;89;20235;-75
2023/03/09 09:16:42;;;;;;;1999.90;999.90;;;6.10;99.90;;;;;;6644685;89;20240;-76
2023/03/09 09:26:42;;;;;;;1999.90;999.90;;;6.40;99.90;;;;;;6648988;89;20209;-76
2023/03/09 09:36:44;;;;;;;1999.90;999.90;;;6.40;99.90;;;;;;6649337;89;20316;-75
2023/03/09 09:46:45;;;;;;;1999.90;999.90;;;6.40;99.90;;;;;;6659816;88;20200;-76
2023/03/09 09:56:52;;;;;;;1999.90;999.90;;;6.40;99.90;;;;;;6643462;88;20800;-76
2023/03/09 10:06:55;;;;;;;1999.90;999.90;;;7.00;99.90;;;;;;6650031;89;20326;-77
2023/03/09 10:17:24;;;;;;;1999.90;999.90;;;7.40;99.90;;;;;;6652273;89;20188;-76
2023/03/09 10:27:40;;;;;;;1999.90;999.90;;;7.70;99.90;;;;;;6648365;88;20771;-76
2023/03/09 10:37:40;;;;;;;1999.90;999.90;;;8.10;99.90;;;;;;6645353;89;20225;-77
2023/03/09 10:48:09;;;;;;;1999.90;999.90;;;8.20;99.90;;;;;;6647126;88;20684;-77
2023/03/09 10:58:14;;;;;;;1999.90;999.90;;;8.30;99.90;;;;;;6657359;88;20294;-77
2023/03/09 11:08:25;;;;;;;1999.90;999.90;;;8.40;99.90;;;;;;6644640;88;20331;-77
2023/03/09 11:18:30;;;;;;;1999.90;999.90;;;8.60;99.90;;;;;;6649745;88;20212;-77
2023/03/09 11:28:52;;;;;;;1999.90;999.90;;;8.70;99.90;;;;;;6654632;88;20629;-76
2023/03/09 11:38:54;;;;;;;1999.90;999.90;;;9.50;99.90;;;;;;6652456;88;20270;-77
2023/03/09 11:49:11;;;;;;;1999.90;999.90;;;10.30;99.90;;;;;;6646488;88;20332;-76
2023/03/09 11:59:37;;;;;;;1999.90;999.90;;;10.90;99.90;;;;;;6651136;89;20203;-77
2023/03/09 12:10:25;;;;;;;1999.90;999.90;;;11.40;99.90;;;;;;6660057;88;20196;-77
2023/03/09 12:20:32;;;;;;;1999.90;999.90;;;11.50;99.90;;;;;;6642541;88;20364;-77
2023/03/09 12:30:42;;;;;;;1999.90;999.90;;;11.40;99.90;;;;;;6645897;89;20727;-77
2023/03/09 12:40:43;;;;;;;1999.90;999.90;;;11.50;99.90;;;;;;6645440;89;20198;-77
2023/03/09 12:50:48;;;;;;;1999.90;999.90;;;11.00;99.90;;;;;;6651753;89;20197;-77
2023/03/09 13:01:03;;;;;;;1999.90;999.90;;;10.70;99.90;;;;;;6646773;89;20605;-76
2023/03/09 13:11:25;;;;;;;1999.90;999.90;;;10.60;99.90;;;;;;6649523;89;20183;-76
2023/03/09 13:21:42;;;;;;;1999.90;999.90;;;10.80;99.90;;;;;;6645476;89;20692;-76
2023/03/09 13:31:46;;;;;;;1999.90;999.90;;;10.80;99.90;;;;;;6652428;89;20197;-76
2023/03/09 13:41:47;;;;;;;1999.90;999.90;;;10.70;99.90;;;;;;6652653;89;20245;-76
2023/03/09 13:51:55;;;;;;;1999.90;999.90;;;10.40;99.90;;;;;;6648291;89;20216;-76
2023/03/09 14:02:01;;;;;;;1999.90;999.90;;;10.50;99.90;;;;;;6650296;89;21086;-76
2023/03/09 14:12:03;;;;;;;1999.90;999.90;;;10.50;99.90;;;;;;6658065;89;20277;-76
2023/03/09 14:22:05;;;;;;;1999.90;999.90;;;11.20;99.90;;;;;;6652374;88;20347;-77
2023/03/09 14:32:29;;;;;;;1999.90;999.90;;;11.90;99.90;;;;;;6650703;88;20318;-76
2023/03/09 14:42:31;;;;;;;1999.90;999.90;;;12.50;99.90;;;;;;6648615;88;20184;-77
2023/03/09 14:52:32;;;;;;;1999.90;999.90;;;12.50;99.90;;;;;;6649188;89;20209;-75
2023/03/09 15:02:34;;;;;;;1999.90;999.90;;;12.80;99.90;;;;;;6662009;89;20761;-76
2023/03/09 15:12:34;;;;;;;1999.90;999.90;;;13.20;99.90;;;;;;6660018;89;20219;-76
2023/03/09 15:22:35;;;;;;;1999.90;999.90;;;13.30;99.90;;;;;;6662322;89;20195;-78
2023/03/09 15:32:35;;;;;;;1999.90;999.90;;;13.10;99.90;;;;;;6665217;89;20288;-76
2023/03/09 15:42:41;;;;;;;1999.90;999.90;;;13.10;99.90;;;;;;6660403;89;20609;-76
2023/03/09 15:52:42;;;;;;;1999.90;999.90;;;13.10;99.90;;;;;;6659348;89;20219;-77
2023/03/09 16:02:42;;;;;;;1999.90;999.90;;;13.10;99.90;;;;;;6657537;89;20249;-76
2023/03/09 16:12:43;;;;;;;1999.90;999.90;;;13.20;99.90;;;;;;6655269;89;20887;-76
2023/03/09 16:22:48;;;;;;;1999.90;999.90;;;13.20;99.90;;;;;;6630607;89;20189;-77
2023/03/09 16:32:50;;;;;;;1999.90;999.90;;;13.10;99.90;;;;;;6635274;89;20218;-76
2023/03/09 16:42:50;;;;;;;1999.90;999.90;;;12.90;99.90;;;;;;6646358;89;20203;-75
2023/03/09 16:52:51;;;;;;;1999.90;999.90;;;12.90;99.90;;;;;;6662079;89;20607;-75
2023/03/09 17:02:52;;;;;;;1999.90;999.90;;;12.70;99.90;;;;;;6656408;89;20236;-75
2023/03/09 17:12:53;;;;;;;1999.90;999.90;;;12.50;99.90;;;;;;6647868;89;20294;-76
2023/03/09 17:22:54;;;;;;;1999.90;999.90;;;12.50;99.90;;;;;;6645153;89;20198;-76
2023/03/09 17:32:54;;;;;;;1999.90;999.90;;;12.40;99.90;;;;;;6647820;89;20200;-77
2023/03/09 17:42:55;;;;;;;1999.90;999.90;;;12.40;99.90;;;;;;6652429;89;20189;-75
2023/03/09 17:52:55;;;;;;;1999.90;999.90;;;12.20;99.90;;;;;;6655974;89;20202;-76
2023/03/09 18:02:56;;;;;;;1999.90;999.90;;;12.10;99.90;;;;;;6641003;89;20217;-77
2023/03/09 18:12:57;;;;;;;1999.90;999.90;;;12.10;99.90;;;;;;6634251;89;20204;-77
2023/03/09 18:22:58;;;;;;;1999.90;999.90;;;12.20;99.90;;;;;;6635207;89;20581;-77
2023/03/09 18:32:58;;;;;;;1999.90;999.90;;;12.20;99.90;;;;;;6641734;89;20227;-76
2023/03/09 18:42:59;;;;;;;1999.90;999.90;;;12.10;99.90;;;;;;6649002;89;20231;-76
2023/03/09 18:52:59;;;;;;;1999.90;999.90;;;12.10;99.90;;;;;;6652774;89;20202;-77
2023/03/09 19:03:00;;;;;;;1999.90;999.90;;;12.20;99.90;;;;;;6643155;89;20197;-77
2023/03/09 19:13:00;;;;;;;1999.90;999.90;;;12.20;99.90;;;;;;6655117;88;20177;-75
2023/03/09 19:23:01;;;;;;;1999.90;999.90;;;12.20;99.90;;;;;;6641092;89;20205;-75
2023/03/09 19:33:02;;;;;;;1999.90;999.90;;;12.30;99.90;;;;;;6643516;88;20194;-76
2023/03/09 19:43:02;;;;;;;1999.90;999.90;;;12.30;99.90;;;;;;6645088;88;20290;-75
2023/03/09 19:53:03;;;;;;;1999.90;999.90;;;12.20;99.90;;;;;;6634482;89;20219;-77
2023/03/09 20:03:03;;;;;;;1999.90;999.90;;;12.10;99.90;;;;;;6642100;89;20223;-77
2023/03/09 20:13:04;;;;;;;1999.90;999.90;;;11.90;99.90;;;;;;6641020;89;20634;-75
2023/03/09 20:23:04;;;;;;;1999.90;999.90;;;11.90;99.90;;;;;;6715438;88;20196;-74
2023/03/09 20:33:06;;;;;;;1999.90;999.90;;;11.90;99.90;;;;;;6672917;88;20197;-74
2023/03/09 20:43:06;;;;;;;1999.90;999.90;;;11.80;99.90;;;;;;6645244;89;20691;-75
2023/03/09 20:53:07;;;;;;;1999.90;999.90;;;11.80;99.90;;;;;;6635597;88;20197;-75
2023/03/09 21:03:08;;;;;;;1999.90;999.90;;;11.80;99.90;;;;;;6641392;88;20991;-75
2023/03/09 21:13:09;;;;;;;1999.90;999.90;;;11.90;99.90;;;;;;6642924;89;20220;-75
2023/03/09 21:23:10;;;;;;;1999.90;999.90;;;11.90;99.90;;;;;;6652650;88;20673;-75
2023/03/09 21:33:10;;;;;;;1999.90;999.90;;;11.90;99.90;;;;;;6648611;89;20197;-74
2023/03/09 21:43:11;;;;;;;1999.90;999.90;;;12.00;99.90;;;;;;6646283;89;20216;-74
2023/03/09 21:53:12;;;;;;;1999.90;999.90;;;12.00;99.90;;;;;;6641635;89;20207;-74
2023/03/09 22:03:12;;;;;;;1999.90;999.90;;;12.10;99.90;;;;;;6649349;89;20306;-76
2023/03/09 22:13:14;;;;;;;1999.90;999.90;;;12.10;99.90;;;;;;6644662;89;20718;-75
2023/03/09 22:23:14;;;;;;;1999.90;999.90;;;12.10;99.90;;;;;;6639370;89;20184;-74
2023/03/09 22:33:15;;;;;;;1999.90;999.90;;;11.90;99.90;;;;;;6637910;88;20608;-75
2023/03/09 22:43:15;;;;;;;1999.90;999.90;;;11.70;99.90;;;;;;6640285;89;20208;-75
2023/03/09 22:53:18;;;;;;;1999.90;999.90;;;11.50;99.90;;;;;;6639223;89;20222;-75
2023/03/09 23:03:18;;;;;;;1999.90;999.90;;;11.60;99.90;;;;;;6638654;88;20700;-74
2023/03/09 23:13:20;;;;;;;1999.90;999.90;;;11.50;99.90;;;;;;6644527;88;20205;-75
2023/03/09 23:23:20;;;;;;;1999.90;999.90;;;11.60;99.90;;;;;;6642960;88;20210;-75
2023/03/09 23:33:21;;;;;;;1999.90;999.90;;;11.70;99.90;;;;;;6642988;88;20193;-76
2023/03/09 23:43:22;;;;;;;1999.90;999.90;;;11.60;99.90;;;;;;6641661;88;20235;-75
2023/03/09 23:53:22;;;;;;;1999.90;999.90;;;11.50;99.90;;;;;;6637679;88;20226;-75
